Relevés horaires Matro (Suisse)


Relevés horaires à Matro - Jeudi 07 Juill. 2022
Heure UTC1 Température [°C] Vent [km/h] Hum. [%] Pres.4 [hPa] Visi. [Km] Nébu. [octa] Préc.5 [mm] Cond.
2m. Res. Ros. Dir.2 Vit. Moy. Raf.3
23:00 7.7 2.9 0.1 NNO 40.7 -- 59.3 59 850(0.6/3h) -- -- -- --
22:00 8.1 3.2 -0.3 NNO 44.4 -- 66.7 55 850(1.0/3h) -- -- -- --
21:00 8.2 3.6 0.2 NNO 38.9 -- 81.5 57 850(1.0/3h) -- -- -- --
20:00 8.9 4.4 0.1 NNO 42.6 -- 81.5 54 850(0.5/3h) -- -- -- --
19:00 9.0 5 -0.1 NNO 33.3 -- 81.5 53 850(-0.3/3h) -- -- -- --
18:00 9.5 5.4 0.4 NNO 38.9 -- 75.9 53 850(-0.5/3h) -- -- -- --
17:00 10.4 6.4 0.7 NO 42.6 -- 66.7 51 850(-0.4/3h) -- -- -- --
16:00 10.7 7.3 0.5 NNO 33.3 -- 57.4 49 850(-0.1/3h) -- -- -- --
15:00 11.1 7.5 0.7 NNO 38.9 -- 75.9 49 850(0.2/3h) -- -- -- --
14:00 11.5 8.9 2.6 NNO 24.1 -- 51.9 54 850(0.3/3h) -- -- -- --
13:00 11.4 8.8 2.9 NO 24.1 -- 59.3 56 850(0.4/3h) -- -- -- --
12:00 11.6 8.6 3.0 NNO 31.5 -- 48.2 55 850(0.0/3h) -- -- -- --
11:00 12.4 10.1 1.3 NNO 24.1 -- 37.0 47 850(0.0/3h) -- -- -- --
10:00 12.8 12.4 -1.0 NO 7.4 -- 22.2 38 850(0.0/3h) -- -- -- --
09:00 11.9 11.4 -1.7 NNO 7.4 -- 18.5 39 850(0.2/3h) -- -- -- --
08:00 11.3 11.3 -2.6 NNO 3.7 -- 16.7 38 850(0.3/3h) -- -- -- --
07:00 11.1 10.1 -1.3 NNO 9.3 -- 16.7 42 850(0.3/3h) -- -- -- --
06:00 10.2 10.2 -0.3 O 3.7 -- 29.6 48 850(-0.1/3h) -- -- -- --
05:00 10.5 10.5 -2.1 ONO 3.7 -- 18.5 41 850(-0.2/3h) -- -- -- --
04:00 9.9 8.3 -2.3 ONO 11.1 -- 22.2 42 850(-0.6/3h) -- -- -- --
03:00 9.6 7.2 -0.6 NO 16.7 -- 29.6 49 850(-0.7/3h) -- -- -- --
02:00 9.7 7.6 -0.1 NO 14.8 -- 22.2 50 850(-0.8/3h) -- -- -- --
01:00 9.6 6.8 1.3 NO 20.4 -- 29.6 56 850(-0.4/3h) -- -- -- --
00:00 9.6 6.5 1.8 NNO 24.1 -- 50.0 58 850(-0.4/3h) -- -- -- --

1 Coordinated Universal Time. Actuellement il est 15:00 locale et 13:00 UTC.

2 Le vent souffle depuis la direction indiquée vers la direction oposée.

3 Les rafales max. sont disponible 40 min après l'heure du relevé.

4 Pour les stations d'altitude (plus de 600m) le géopotentiel du niveau le plus proche de la pression obligatoire est indiqué.

5 Les stations disposant d'un diffuseur peuvent indiquer "trace". Cela signifie que des précipitations ont touchés le sol mais que la quantité est inférieure à 0.1 mm.

Copyright

Les données affichées sur cette page sont la propriété exclusive de Météo Suisse.

Récapitulatif de la journée
Température [°C] Vent [km/h] Ensoleillement4 [h] Precipitations totale5 [mm] Pression [Hpa]
Min1 Max.2 Moy.3 Max. Min Max.
9.3 13.1 0 81.5 8 h 54 min 0 850.0 850.0

1 Température minimale relevée entre 18:00 UTC la veille et 18:00 UTC le jour donné.

2 Température maximale relevée entre 06:00 UTC le jour donné et 06:00 UTC le lendemain.

3 Vent moyen de la journée basé sur les relevés horaires.

4 Ensoleillement en heures relevé entre 06:00 UTC la veille et 06:00 UTC le jour donné.

5 Précipitations totales tombées entre 06:00 UTC la jour donné et 06:00 UTC le lendemain.

Graphiques horaires